Time;durP1;ratioP1;P1;durP2;ratioP2;P2;SDS_P1;SDS_P2;PMS_P1;PMS_P2;Temp;Humidity;BMP_temperature;BMP_pressure;BME280_temperature;BME280_humidity;BME280_pressure;Samples;Min_cycle;Max_cycle;Signal;HPM_P1;HPM_P2
2023/04/19 00:01:23;;;;;;;11.13;9.37;;;;;;;;;;5026007;28;20182;-85
2023/04/19 00:03:48;;;;;;;14.20;10.27;;;;;;;;;;5025811;28;20201;-85
2023/04/19 00:06:15;;;;;;;15.70;10.93;;;;;;;;;;5034662;28;20187;-85
2023/04/19 00:08:43;;;;;;;16.70;10.63;;;;;;;;;;5025358;28;20179;-85
2023/04/19 00:11:09;;;;;;;13.90;10.87;;;;;;;;;;5018141;28;20194;-85
2023/04/19 00:13:34;;;;;;;13.90;11.13;;;;;;;;;;5028333;28;20282;-85
2023/04/19 00:15:59;;;;;;;14.53;9.53;;;;;;;;;;5028898;28;20206;-85
2023/04/19 00:18:25;;;;;;;16.03;11.80;;;;;;;;;;5028170;28;20254;-85
2023/04/19 00:20:50;;;;;;;20.17;11.87;;;;;;;;;;5026648;28;20190;-85
2023/04/19 00:23:15;;;;;;;14.83;11.60;;;;;;;;;;5026524;28;20186;-85
2023/04/19 00:25:41;;;;;;;15.93;11.87;;;;;;;;;;5022671;28;20187;-85
2023/04/19 00:28:06;;;;;;;13.53;10.77;;;;;;;;;;5027738;28;20179;-85
2023/04/19 00:30:31;;;;;;;14.63;12.00;;;;;;;;;;5027791;28;20194;-85
2023/04/19 00:32:56;;;;;;;17.10;12.27;;;;;;;;;;5026432;28;20178;-85
2023/04/19 00:35:21;;;;;;;14.80;10.80;;;;;;;;;;5026913;28;20179;-86
2023/04/19 00:37:47;;;;;;;20.93;12.57;;;;;;;;;;5026298;28;20196;-85
2023/04/19 00:40:12;;;;;;;16.27;12.40;;;;;;;;;;5026004;28;20172;-85
2023/04/19 00:42:39;;;;;;;15.97;11.90;;;;;;;;;;5027396;28;20222;-86
2023/04/19 00:45:04;;;;;;;16.17;11.97;;;;;;;;;;5045477;28;20190;-85
2023/04/19 00:47:30;;;;;;;16.90;12.70;;;;;;;;;;5048805;28;20184;-85
2023/04/19 00:49:55;;;;;;;17.27;12.93;;;;;;;;;;5026357;28;20174;-85
2023/04/19 00:52:21;;;;;;;15.40;11.67;;;;;;;;;;5024848;28;20179;-85
2023/04/19 00:54:46;;;;;;;15.10;11.40;;;;;;;;;;5015440;28;20186;-85
2023/04/19 00:57:11;;;;;;;16.50;12.27;;;;;;;;;;5024685;28;20190;-85
2023/04/19 00:59:37;;;;;;;16.53;12.13;;;;;;;;;;5025263;28;20227;-85
2023/04/19 01:02:03;;;;;;;15.03;12.23;;;;;;;;;;5034849;28;20191;-85
2023/04/19 01:04:28;;;;;;;14.87;9.87;;;;;;;;;;5031989;28;20261;-86
2023/04/19 01:06:53;;;;;;;19.10;13.47;;;;;;;;;;5022470;28;20217;-85
2023/04/19 01:09:21;;;;;;;19.93;13.47;;;;;;;;;;5022959;28;20191;-85
2023/04/19 01:11:47;;;;;;;16.43;11.90;;;;;;;;;;5020883;28;20194;-85
2023/04/19 01:14:12;;;;;;;13.77;9.87;;;;;;;;;;5022578;28;20282;-85
2023/04/19 01:16:38;;;;;;;16.60;12.63;;;;;;;;;;5020274;28;20213;-85
2023/04/19 01:19:03;;;;;;;16.70;12.37;;;;;;;;;;5025793;28;20211;-85
2023/04/19 01:21:29;;;;;;;17.33;13.27;;;;;;;;;;5024545;28;20183;-85
2023/04/19 01:23:54;;;;;;;16.10;10.83;;;;;;;;;;5026190;28;20281;-85
2023/04/19 01:26:21;;;;;;;16.50;13.10;;;;;;;;;;5023028;28;20242;-85
2023/04/19 01:28:46;;;;;;;21.67;12.13;;;;;;;;;;5018046;28;20203;-85
2023/04/19 01:31:11;;;;;;;16.77;11.40;;;;;;;;;;5022654;28;20281;-85
2023/04/19 01:33:36;;;;;;;18.17;11.70;;;;;;;;;;5015811;28;20198;-85
2023/04/19 01:36:02;;;;;;;19.70;14.00;;;;;;;;;;5025627;28;20194;-85
2023/04/19 01:38:27;;;;;;;18.70;12.97;;;;;;;;;;5022897;28;20224;-85
2023/04/19 01:40:55;;;;;;;16.73;13.17;;;;;;;;;;5022359;28;20199;-85
2023/04/19 01:43:20;;;;;;;17.87;13.13;;;;;;;;;;5021560;28;20187;-85
2023/04/19 01:45:46;;;;;;;19.10;13.43;;;;;;;;;;5028670;28;20184;-85
2023/04/19 01:48:11;;;;;;;19.93;13.27;;;;;;;;;;5023810;28;20183;-85
2023/04/19 01:50:36;;;;;;;17.93;12.47;;;;;;;;;;5021395;28;20183;-85
2023/04/19 01:53:01;;;;;;;20.97;12.30;;;;;;;;;;5024407;28;20201;-85
2023/04/19 01:55:27;;;;;;;21.77;14.10;;;;;;;;;;5016935;28;20196;-85
2023/04/19 01:57:53;;;;;;;21.17;12.67;;;;;;;;;;5021483;28;20202;-85
2023/04/19 02:00:18;;;;;;;18.20;13.73;;;;;;;;;;5020723;28;20175;-85
2023/04/19 02:02:44;;;;;;;22.20;14.97;;;;;;;;;;5025793;28;20213;-85
2023/04/19 02:05:10;;;;;;;18.40;14.20;;;;;;;;;;5016991;28;20187;-85
2023/04/19 02:07:35;;;;;;;17.03;12.83;;;;;;;;;;5020898;28;20186;-85
2023/04/19 02:10:00;;;;;;;19.00;13.37;;;;;;;;;;5017659;28;20175;-85
2023/04/19 02:12:27;;;;;;;20.70;13.20;;;;;;;;;;5027061;28;20175;-85
2023/04/19 02:14:56;;;;;;;19.90;13.73;;;;;;;;;;5025768;28;20189;-85
2023/04/19 02:17:21;;;;;;;23.40;13.73;;;;;;;;;;5024825;28;20220;-85
2023/04/19 02:19:46;;;;;;;20.50;13.63;;;;;;;;;;5037588;28;20178;-85
2023/04/19 02:22:11;;;;;;;23.47;14.83;;;;;;;;;;5024907;28;20209;-85
2023/04/19 02:24:37;;;;;;;16.37;11.17;;;;;;;;;;5024811;28;20179;-85
2023/04/19 02:27:02;;;;;;;21.23;14.83;;;;;;;;;;5033253;28;20274;-85
2023/04/19 02:29:27;;;;;;;19.73;12.63;;;;;;;;;;5024926;28;20178;-85
2023/04/19 02:31:52;;;;;;;22.57;14.23;;;;;;;;;;5028500;28;20183;-85
2023/04/19 02:34:17;;;;;;;17.53;12.43;;;;;;;;;;5028015;28;20210;-85
2023/04/19 02:36:43;;;;;;;20.33;14.10;;;;;;;;;;5026830;28;20226;-85
2023/04/19 02:39:08;;;;;;;21.13;15.00;;;;;;;;;;5047069;28;20199;-85
2023/04/19 02:41:33;;;;;;;19.90;13.27;;;;;;;;;;5038251;28;20185;-85
2023/04/19 02:43:58;;;;;;;18.27;14.17;;;;;;;;;;5031855;28;20182;-85
2023/04/19 02:46:24;;;;;;;20.20;14.20;;;;;;;;;;5023229;28;20180;-85
2023/04/19 02:48:49;;;;;;;19.43;13.03;;;;;;;;;;5031888;28;20182;-85
2023/04/19 02:51:15;;;;;;;18.73;14.00;;;;;;;;;;5024133;28;20187;-85
2023/04/19 02:53:40;;;;;;;19.80;13.90;;;;;;;;;;5028492;28;20184;-85
2023/04/19 02:56:06;;;;;;;22.30;14.33;;;;;;;;;;5021755;28;20195;-85
2023/04/19 02:58:31;;;;;;;22.47;15.13;;;;;;;;;;5023748;28;20310;-85
2023/04/19 03:00:56;;;;;;;18.47;14.37;;;;;;;;;;5032041;28;20205;-85
2023/04/19 03:03:22;;;;;;;21.77;14.67;;;;;;;;;;5028611;28;20203;-85
2023/04/19 03:05:47;;;;;;;23.37;14.97;;;;;;;;;;5031156;28;20181;-85
2023/04/19 03:08:12;;;;;;;20.33;13.67;;;;;;;;;;5020574;28;20190;-85
2023/04/19 03:10:37;;;;;;;23.63;14.93;;;;;;;;;;5021062;28;20187;-85
2023/04/19 03:13:02;;;;;;;23.13;15.83;;;;;;;;;;5032470;28;20174;-85
2023/04/19 03:15:28;;;;;;;21.77;14.17;;;;;;;;;;5025894;28;20216;-85
2023/04/19 03:17:53;;;;;;;19.50;14.97;;;;;;;;;;5026042;28;20225;-85
2023/04/19 03:20:19;;;;;;;22.50;14.90;;;;;;;;;;5028831;28;20257;-85
2023/04/19 03:22:44;;;;;;;22.00;15.93;;;;;;;;;;5026114;28;20180;-85
2023/04/19 03:25:12;;;;;;;20.87;15.37;;;;;;;;;;5028464;28;20231;-85
2023/04/19 03:27:37;;;;;;;22.53;15.03;;;;;;;;;;5032686;28;20181;-85
2023/04/19 03:30:03;;;;;;;24.60;15.37;;;;;;;;;;5029376;28;20167;-85
2023/04/19 03:32:28;;;;;;;22.53;14.40;;;;;;;;;;5022365;28;20178;-85
2023/04/19 03:34:53;;;;;;;21.20;14.47;;;;;;;;;;5026664;28;20193;-85
2023/04/19 03:37:18;;;;;;;24.93;16.10;;;;;;;;;;5019425;28;20178;-85
2023/04/19 03:39:44;;;;;;;23.27;14.70;;;;;;;;;;5025688;28;20240;-85
2023/04/19 03:42:09;;;;;;;23.90;15.27;;;;;;;;;;5022204;28;20187;-85
2023/04/19 03:44:34;;;;;;;22.67;16.67;;;;;;;;;;5028102;28;20296;-85
2023/04/19 03:47:00;;;;;;;20.53;15.20;;;;;;;;;;5030441;28;20194;-85
2023/04/19 03:49:25;;;;;;;22.30;14.90;;;;;;;;;;5030908;28;20195;-85
2023/04/19 03:51:50;;;;;;;23.53;15.90;;;;;;;;;;5027106;28;20178;-85
2023/04/19 03:54:16;;;;;;;21.87;15.60;;;;;;;;;;5026826;28;20241;-85
2023/04/19 03:56:41;;;;;;;23.77;15.57;;;;;;;;;;5024942;28;20182;-85
2023/04/19 03:59:06;;;;;;;22.33;15.40;;;;;;;;;;5024312;28;20204;-85
2023/04/19 04:01:32;;;;;;;19.23;14.60;;;;;;;;;;5027052;28;20178;-85
2023/04/19 04:03:58;;;;;;;22.57;15.10;;;;;;;;;;5024374;28;20183;-85
2023/04/19 04:06:23;;;;;;;22.37;14.30;;;;;;;;;;5019007;28;20256;-85
2023/04/19 04:08:48;;;;;;;21.13;15.00;;;;;;;;;;5019326;28;20182;-85
2023/04/19 04:11:14;;;;;;;21.77;16.93;;;;;;;;;;5025857;28;20255;-85
2023/04/19 04:13:39;;;;;;;22.77;14.23;;;;;;;;;;5039898;28;20179;-85
2023/04/19 04:16:04;;;;;;;21.73;15.30;;;;;;;;;;5028466;28;20191;-85
2023/04/19 04:18:29;;;;;;;20.63;15.67;;;;;;;;;;5027455;28;20246;-84
2023/04/19 04:20:55;;;;;;;25.10;15.73;;;;;;;;;;5023313;28;20188;-85
2023/04/19 04:23:20;;;;;;;20.30;15.40;;;;;;;;;;5022870;28;20180;-85
2023/04/19 04:25:46;;;;;;;21.90;16.90;;;;;;;;;;5026992;28;20187;-85
2023/04/19 04:28:11;;;;;;;21.07;16.30;;;;;;;;;;5020769;28;20182;-85
2023/04/19 04:30:36;;;;;;;21.93;15.73;;;;;;;;;;5028752;28;20201;-85
2023/04/19 04:33:02;;;;;;;23.00;15.40;;;;;;;;;;5025935;28;20280;-84
2023/04/19 04:35:28;;;;;;;21.77;13.93;;;;;;;;;;5029353;28;20183;-85
2023/04/19 04:37:54;;;;;;;21.77;14.87;;;;;;;;;;5026132;28;20223;-85
2023/04/19 04:40:19;;;;;;;21.83;15.33;;;;;;;;;;5020926;28;20266;-85
2023/04/19 04:42:44;;;;;;;23.33;15.73;;;;;;;;;;5023350;28;20185;-84
2023/04/19 04:45:10;;;;;;;22.20;15.30;;;;;;;;;;5023982;28;20222;-85
2023/04/19 04:47:35;;;;;;;22.70;16.43;;;;;;;;;;5025414;28;20317;-85
2023/04/19 04:50:01;;;;;;;25.37;16.13;;;;;;;;;;5024326;28;20266;-85
2023/04/19 04:52:27;;;;;;;24.60;15.67;;;;;;;;;;5027036;28;20178;-84
2023/04/19 04:54:52;;;;;;;20.87;14.60;;;;;;;;;;5022470;28;20190;-85
2023/04/19 04:57:17;;;;;;;22.10;15.47;;;;;;;;;;5031701;28;20270;-85
2023/04/19 04:59:42;;;;;;;23.43;16.00;;;;;;;;;;5024344;28;20210;-85
2023/04/19 05:02:07;;;;;;;14.77;10.50;;;;;;;;;;5026725;28;20196;-85
2023/04/19 05:04:32;;;;;;;21.47;14.67;;;;;;;;;;5026076;28;20193;-85
2023/04/19 05:06:58;;;;;;;21.53;14.77;;;;;;;;;;5015499;28;20179;-77
2023/04/19 05:09:23;;;;;;;25.57;19.80;;;;;;;;;;5029282;28;20184;-76
2023/04/19 05:11:48;;;;;;;22.57;14.83;;;;;;;;;;5029470;28;20230;-77
2023/04/19 05:14:13;;;;;;;22.30;15.60;;;;;;;;;;5032111;28;20186;-77
2023/04/19 05:16:39;;;;;;;21.63;15.40;;;;;;;;;;5025046;28;20190;-77
2023/04/19 05:19:04;;;;;;;23.23;13.90;;;;;;;;;;5024405;28;20207;-77
2023/04/19 05:21:29;;;;;;;20.57;15.23;;;;;;;;;;5021765;28;20194;-77
2023/04/19 05:23:55;;;;;;;21.67;13.63;;;;;;;;;;5022839;28;20186;-77
2023/04/19 05:26:20;;;;;;;21.93;14.73;;;;;;;;;;5016182;28;20179;-77
2023/04/19 05:28:45;;;;;;;25.60;16.63;;;;;;;;;;5022142;28;20187;-77
2023/04/19 05:31:10;;;;;;;21.63;15.17;;;;;;;;;;5027235;28;20278;-77
2023/04/19 05:33:36;;;;;;;22.53;13.43;;;;;;;;;;5021443;28;20279;-77
2023/04/19 05:36:01;;;;;;;22.57;13.03;;;;;;;;;;5026135;28;20180;-77
2023/04/19 05:38:26;;;;;;;24.93;16.13;;;;;;;;;;5030783;28;20214;-76
2023/04/19 05:40:51;;;;;;;21.17;14.50;;;;;;;;;;5032102;28;20190;-77
2023/04/19 05:43:16;;;;;;;21.60;15.23;;;;;;;;;;5042389;28;20213;-77
2023/04/19 05:45:42;;;;;;;21.77;14.47;;;;;;;;;;5027934;28;20185;-77
2023/04/19 05:48:07;;;;;;;25.63;14.97;;;;;;;;;;5027470;28;20191;-77
2023/04/19 05:50:32;;;;;;;20.57;14.57;;;;;;;;;;5020565;28;20191;-77
2023/04/19 05:52:57;;;;;;;21.30;15.10;;;;;;;;;;5031339;28;20175;-77
2023/04/19 05:55:22;;;;;;;23.93;15.60;;;;;;;;;;5027922;28;20188;-77
2023/04/19 05:57:48;;;;;;;20.73;15.00;;;;;;;;;;5029032;28;20186;-77
2023/04/19 06:00:14;;;;;;;24.50;16.37;;;;;;;;;;5032317;28;20171;-77
2023/04/19 06:02:40;;;;;;;23.60;14.40;;;;;;;;;;5027472;28;20202;-77
2023/04/19 06:05:05;;;;;;;23.80;16.20;;;;;;;;;;5032688;28;20181;-77
2023/04/19 06:07:30;;;;;;;19.37;14.60;;;;;;;;;;5028404;28;20210;-77
2023/04/19 06:09:55;;;;;;;21.13;14.00;;;;;;;;;;5029772;28;20189;-77
2023/04/19 06:12:21;;;;;;;18.40;13.00;;;;;;;;;;5029335;28;20185;-77
2023/04/19 06:14:46;;;;;;;19.80;14.40;;;;;;;;;;5024397;28;20187;-77
2023/04/19 06:17:11;;;;;;;21.63;14.23;;;;;;;;;;5025229;28;20226;-77
2023/04/19 06:19:36;;;;;;;16.47;11.67;;;;;;;;;;5026561;28;20210;-76
2023/04/19 06:22:02;;;;;;;23.60;15.27;;;;;;;;;;5030755;28;20238;-77
2023/04/19 06:24:27;;;;;;;22.63;15.00;;;;;;;;;;5020367;28;20277;-77
2023/04/19 06:26:52;;;;;;;23.43;16.00;;;;;;;;;;5027436;28;20179;-76
2023/04/19 06:29:20;;;;;;;21.40;14.83;;;;;;;;;;5026041;28;20184;-77
2023/04/19 06:31:45;;;;;;;19.97;14.47;;;;;;;;;;5027833;28;20341;-77
2023/04/19 06:34:11;;;;;;;18.87;13.20;;;;;;;;;;5025240;28;20265;-77
2023/04/19 06:36:36;;;;;;;20.40;12.20;;;;;;;;;;5023872;28;20186;-77
2023/04/19 06:39:01;;;;;;;22.00;13.77;;;;;;;;;;5025416;28;20267;-77
2023/04/19 06:41:26;;;;;;;22.67;14.27;;;;;;;;;;5030613;28;20210;-77
2023/04/19 06:43:51;;;;;;;21.03;14.40;;;;;;;;;;5029859;28;20218;-77
2023/04/19 06:46:17;;;;;;;18.37;14.03;;;;;;;;;;5029143;28;20213;-77
2023/04/19 06:48:42;;;;;;;21.70;13.83;;;;;;;;;;5028408;28;20229;-77
2023/04/19 06:51:08;;;;;;;19.23;14.07;;;;;;;;;;5029738;28;20184;-77
2023/04/19 06:53:34;;;;;;;19.63;13.90;;;;;;;;;;5028337;28;20183;-77
2023/04/19 06:56:00;;;;;;;18.13;12.37;;;;;;;;;;5022770;28;20189;-77
2023/04/19 06:58:26;;;;;;;18.30;13.43;;;;;;;;;;5023207;28;20276;-77
2023/04/19 07:00:51;;;;;;;20.13;14.23;;;;;;;;;;5029200;28;20265;-77
2023/04/19 07:03:16;;;;;;;19.03;12.03;;;;;;;;;;5028205;28;20250;-77
2023/04/19 07:05:42;;;;;;;20.40;14.00;;;;;;;;;;5032493;28;20176;-77
2023/04/19 07:08:07;;;;;;;18.97;13.73;;;;;;;;;;5029974;28;20190;-77
2023/04/19 07:10:32;;;;;;;18.47;14.43;;;;;;;;;;5028475;28;20185;-77
2023/04/19 07:12:57;;;;;;;20.13;15.20;;;;;;;;;;5023208;28;20247;-77
2023/04/19 07:15:22;;;;;;;17.37;11.93;;;;;;;;;;5035983;28;20252;-77
2023/04/19 07:17:48;;;;;;;18.67;13.97;;;;;;;;;;5031466;28;20237;-77
2023/04/19 07:20:13;;;;;;;18.40;14.17;;;;;;;;;;5037050;28;20183;-77
2023/04/19 07:22:38;;;;;;;17.83;13.50;;;;;;;;;;5023680;28;20175;-77
2023/04/19 07:25:04;;;;;;;19.30;13.13;;;;;;;;;;5025580;28;20182;-77
2023/04/19 07:27:29;;;;;;;16.03;11.60;;;;;;;;;;5032322;28;20205;-77
2023/04/19 07:29:54;;;;;;;18.37;13.23;;;;;;;;;;5027146;28;20286;-77
2023/04/19 07:32:19;;;;;;;18.80;14.10;;;;;;;;;;5020586;28;20187;-77
2023/04/19 07:34:45;;;;;;;18.20;12.97;;;;;;;;;;5024651;28;20217;-77
2023/04/19 07:37:11;;;;;;;18.33;11.83;;;;;;;;;;5024264;28;20191;-77
2023/04/19 07:39:36;;;;;;;19.17;13.20;;;;;;;;;;5025074;28;20207;-77
2023/04/19 07:42:01;;;;;;;18.43;13.13;;;;;;;;;;5022333;28;20232;-77
2023/04/19 07:44:27;;;;;;;15.67;11.17;;;;;;;;;;5025163;28;20178;-77
2023/04/19 07:46:52;;;;;;;17.47;13.13;;;;;;;;;;5029551;28;20175;-77
2023/04/19 07:49:18;;;;;;;18.73;13.73;;;;;;;;;;5033014;28;20190;-77
2023/04/19 07:51:43;;;;;;;18.70;12.00;;;;;;;;;;5027812;28;20294;-77
2023/04/19 07:54:09;;;;;;;15.33;11.37;;;;;;;;;;5030305;28;20183;-77
2023/04/19 07:56:34;;;;;;;18.43;12.27;;;;;;;;;;5024561;28;20179;-77
2023/04/19 07:58:59;;;;;;;14.93;12.60;;;;;;;;;;5022549;28;20235;-77
2023/04/19 08:01:25;;;;;;;15.73;13.07;;;;;;;;;;5023927;28;20184;-77
2023/04/19 08:03:50;;;;;;;18.33;13.03;;;;;;;;;;5026247;28;20244;-77
2023/04/19 08:06:16;;;;;;;23.63;13.37;;;;;;;;;;5032133;28;20181;-77
2023/04/19 08:08:41;;;;;;;14.80;11.90;;;;;;;;;;5022819;28;20228;-77
2023/04/19 08:11:07;;;;;;;15.90;12.10;;;;;;;;;;5024284;28;20176;-76
2023/04/19 08:13:32;;;;;;;15.67;11.73;;;;;;;;;;5032226;28;20188;-77
2023/04/19 08:15:59;;;;;;;14.57;11.63;;;;;;;;;;5027761;28;20179;-77
2023/04/19 08:18:25;;;;;;;16.10;12.90;;;;;;;;;;5035769;28;20242;-77
2023/04/19 08:20:50;;;;;;;15.77;12.33;;;;;;;;;;5028080;28;20179;-77
2023/04/19 08:23:16;;;;;;;13.67;10.90;;;;;;;;;;5029774;28;20241;-77
2023/04/19 08:25:41;;;;;;;17.53;11.17;;;;;;;;;;5027592;28;20179;-77
2023/04/19 08:28:06;;;;;;;13.90;11.10;;;;;;;;;;5019624;28;20278;-77
2023/04/19 08:30:32;;;;;;;13.67;10.97;;;;;;;;;;5025700;28;20183;-77
2023/04/19 08:32:57;;;;;;;16.27;10.03;;;;;;;;;;5022775;28;20278;-77
2023/04/19 08:35:23;;;;;;;14.27;10.97;;;;;;;;;;5019443;28;20171;-77
2023/04/19 08:37:49;;;;;;;14.27;11.83;;;;;;;;;;5033517;28;20194;-77
2023/04/19 08:40:15;;;;;;;13.37;10.47;;;;;;;;;;5024870;28;20186;-77
2023/04/19 08:42:41;;;;;;;13.10;10.70;;;;;;;;;;5026218;28;20176;-77
2023/04/19 08:45:07;;;;;;;12.97;11.13;;;;;;;;;;5032600;28;20175;-77
2023/04/19 08:47:32;;;;;;;13.70;11.33;;;;;;;;;;5026152;28;20221;-77
2023/04/19 08:49:59;;;;;;;13.20;9.97;;;;;;;;;;5028947;28;20204;-77
2023/04/19 08:52:25;;;;;;;12.73;11.23;;;;;;;;;;5029026;28;20185;-78
2023/04/19 08:54:50;;;;;;;13.27;11.67;;;;;;;;;;5026821;28;20183;-77
2023/04/19 08:57:16;;;;;;;13.20;9.40;;;;;;;;;;5030107;28;20258;-77
2023/04/19 08:59:44;;;;;;;12.53;9.50;;;;;;;;;;5027876;28;20211;-77
2023/04/19 09:02:09;;;;;;;11.07;9.67;;;;;;;;;;5025505;28;20206;-77
2023/04/19 09:04:34;;;;;;;11.33;9.17;;;;;;;;;;5030667;28;20174;-77
2023/04/19 09:07:00;;;;;;;12.80;10.87;;;;;;;;;;5033201;28;20274;-77
2023/04/19 09:09:26;;;;;;;12.20;9.40;;;;;;;;;;5025390;28;20237;-74
2023/04/19 09:11:51;;;;;;;11.40;8.67;;;;;;;;;;5028209;28;20190;-75
2023/04/19 09:14:17;;;;;;;11.37;8.77;;;;;;;;;;5027170;28;20175;-75
2023/04/19 09:16:43;;;;;;;10.37;8.57;;;;;;;;;;5028504;28;20180;-75
2023/04/19 09:19:08;;;;;;;9.53;7.57;;;;;;;;;;5033096;28;20215;-75
2023/04/19 09:21:34;;;;;;;10.80;8.10;;;;;;;;;;5031718;28;20217;-75
2023/04/19 09:23:59;;;;;;;10.83;8.63;;;;;;;;;;5033521;28;20180;-77
2023/04/19 09:26:28;;;;;;;13.27;9.17;;;;;;;;;;5026256;28;20205;-77
2023/04/19 09:28:57;;;;;;;9.13;7.67;;;;;;;;;;5026668;28;20178;-78
2023/04/19 09:31:23;;;;;;;10.77;8.40;;;;;;;;;;5030923;28;20191;-77
2023/04/19 09:33:48;;;;;;;11.73;9.63;;;;;;;;;;5020989;28;20177;-77
2023/04/19 09:36:34;;;;;;;9.80;7.40;;;;;;;;;;5028696;28;20180;-77
2023/04/19 09:38:59;;;;;;;10.90;9.70;;;;;;;;;;5022631;28;20215;-77
2023/04/19 09:41:25;;;;;;;10.33;8.90;;;;;;;;;;5028789;28;20176;-78
2023/04/19 09:43:51;;;;;;;10.40;9.30;;;;;;;;;;5027342;28;20176;-77
2023/04/19 09:46:36;;;;;;;11.33;9.80;;;;;;;;;;5025041;28;20267;-77
2023/04/19 09:49:19;;;;;;;11.60;9.63;;;;;;;;;;5028740;28;20183;-77
2023/04/19 09:51:45;;;;;;;10.80;9.17;;;;;;;;;;5028631;28;20188;-77
2023/04/19 09:54:11;;;;;;;13.63;10.67;;;;;;;;;;5031271;28;20199;-77
2023/04/19 09:56:36;;;;;;;13.67;10.43;;;;;;;;;;5027521;28;20299;-77
2023/04/19 09:59:02;;;;;;;11.20;8.93;;;;;;;;;;5027109;28;20206;-78
2023/04/19 10:01:28;;;;;;;10.80;9.30;;;;;;;;;;5026776;28;20177;-78
2023/04/19 10:03:54;;;;;;;11.23;9.37;;;;;;;;;;5030009;28;20200;-78
2023/04/19 10:06:19;;;;;;;12.33;10.67;;;;;;;;;;5029556;28;20169;-77
2023/04/19 10:08:45;;;;;;;13.20;10.80;;;;;;;;;;5025688;28;20189;-78
2023/04/19 10:11:11;;;;;;;13.37;10.33;;;;;;;;;;5023402;28;20215;-78
2023/04/19 10:13:36;;;;;;;13.17;10.60;;;;;;;;;;5029221;28;20198;-78
2023/04/19 10:16:02;;;;;;;10.63;8.70;;;;;;;;;;5021452;28;20190;-75
2023/04/19 10:18:27;;;;;;;11.73;9.93;;;;;;;;;;5036085;28;20270;-75
2023/04/19 10:20:58;;;;;;;12.27;10.20;;;;;;;;;;5029739;28;20181;-75
2023/04/19 10:23:24;;;;;;;9.70;8.57;;;;;;;;;;5029084;28;20268;-75
2023/04/19 10:25:54;;;;;;;12.67;9.77;;;;;;;;;;5024903;28;20282;-75
2023/04/19 10:28:19;;;;;;;11.80;9.37;;;;;;;;;;5027438;28;20189;-75
2023/04/19 10:30:56;;;;;;;12.43;9.90;;;;;;;;;;5026606;28;20186;-75
2023/04/19 10:33:25;;;;;;;11.57;9.33;;;;;;;;;;5024980;28;20193;-75
2023/04/19 10:35:54;;;;;;;12.50;8.93;;;;;;;;;;5020587;28;20241;-75
2023/04/19 10:38:20;;;;;;;11.43;8.77;;;;;;;;;;5038257;28;20254;-75
2023/04/19 10:40:51;;;;;;;11.00;9.63;;;;;;;;;;5034389;28;20256;-75
2023/04/19 10:43:20;;;;;;;10.57;9.23;;;;;;;;;;5034607;28;20185;-75
2023/04/19 10:45:46;;;;;;;11.30;9.73;;;;;;;;;;5032860;28;20188;-76
2023/04/19 10:48:37;;;;;;;12.43;9.47;;;;;;;;;;5031310;28;20178;-75
2023/04/19 10:51:14;;;;;;;11.53;9.83;;;;;;;;;;5030190;28;20186;-75
2023/04/19 10:53:46;;;;;;;11.00;9.87;;;;;;;;;;5030011;28;20180;-76
2023/04/19 10:56:11;;;;;;;13.30;9.90;;;;;;;;;;5022092;28;20192;-75
2023/04/19 10:58:55;;;;;;;10.73;9.20;;;;;;;;;;5035786;28;20199;-76
2023/04/19 11:01:36;;;;;;;10.63;9.37;;;;;;;;;;5023720;28;20181;-75
2023/04/19 11:04:02;;;;;;;13.03;10.57;;;;;;;;;;5032181;28;20183;-75
2023/04/19 11:06:27;;;;;;;11.63;9.60;;;;;;;;;;5037232;28;20253;-75
2023/04/19 11:08:52;;;;;;;11.73;9.53;;;;;;;;;;5037190;28;20188;-76
2023/04/19 11:11:18;;;;;;;10.33;8.93;;;;;;;;;;5029343;28;20177;-75
2023/04/19 11:13:46;;;;;;;12.50;9.33;;;;;;;;;;5032669;28;20182;-75
2023/04/19 11:16:11;;;;;;;10.87;9.70;;;;;;;;;;5026193;28;20181;-75
2023/04/19 11:18:36;;;;;;;11.20;8.93;;;;;;;;;;5031759;28;20281;-75
2023/04/19 11:21:01;;;;;;;10.37;8.23;;;;;;;;;;5028764;28;20173;-75
2023/04/19 11:23:27;;;;;;;10.23;8.60;;;;;;;;;;5026626;28;20186;-75
2023/04/19 11:25:52;;;;;;;9.33;7.60;;;;;;;;;;5028627;28;20212;-75
2023/04/19 11:28:17;;;;;;;10.20;8.27;;;;;;;;;;5026105;28;20280;-75
2023/04/19 11:30:43;;;;;;;10.73;9.53;;;;;;;;;;5029516;28;20182;-75
2023/04/19 11:33:11;;;;;;;9.03;7.67;;;;;;;;;;5030640;28;20204;-75
2023/04/19 11:35:36;;;;;;;11.57;8.93;;;;;;;;;;5027540;28;20187;-76
2023/04/19 11:38:03;;;;;;;10.43;8.80;;;;;;;;;;5031254;28;20174;-75
2023/04/19 11:40:28;;;;;;;10.43;7.97;;;;;;;;;;5027265;28;20190;-75
2023/04/19 11:42:55;;;;;;;9.07;7.47;;;;;;;;;;5031068;28;20183;-75
2023/04/19 11:45:24;;;;;;;12.37;9.60;;;;;;;;;;5026152;28;20264;-75
2023/04/19 11:47:50;;;;;;;9.47;8.10;;;;;;;;;;5031043;28;20178;-75
2023/04/19 11:50:34;;;;;;;9.23;6.80;;;;;;;;;;5030297;28;20182;-75
2023/04/19 11:53:08;;;;;;;10.97;9.43;;;;;;;;;;5030199;28;20177;-75
2023/04/19 11:55:33;;;;;;;13.40;9.50;;;;;;;;;;5029061;28;20257;-75
2023/04/19 11:57:58;;;;;;;10.87;8.93;;;;;;;;;;5030254;28;20287;-75
2023/04/19 12:00:27;;;;;;;13.90;9.17;;;;;;;;;;5025253;28;20177;-75
2023/04/19 12:02:53;;;;;;;12.33;8.70;;;;;;;;;;5028272;28;20197;-75
2023/04/19 12:05:18;;;;;;;10.67;8.80;;;;;;;;;;5034618;28;20186;-75
2023/04/19 12:08:03;;;;;;;12.17;9.80;;;;;;;;;;5025913;28;20188;-75
2023/04/19 12:10:29;;;;;;;10.37;9.20;;;;;;;;;;5017884;28;20193;-79
2023/04/19 12:12:55;;;;;;;11.33;10.23;;;;;;;;;;5013847;28;20347;-77
2023/04/19 12:15:20;;;;;;;10.80;8.57;;;;;;;;;;5020919;28;20249;-76
2023/04/19 12:18:01;;;;;;;11.57;9.07;;;;;;;;;;5029422;28;20233;-77
2023/04/19 12:20:30;;;;;;;15.13;10.93;;;;;;;;;;5030346;28;20178;-76
2023/04/19 12:22:55;;;;;;;14.17;10.43;;;;;;;;;;5032356;28;20191;-76
2023/04/19 12:25:21;;;;;;;13.07;8.70;;;;;;;;;;5027490;28;20196;-76
2023/04/19 12:27:46;;;;;;;11.37;9.60;;;;;;;;;;5025476;28;20180;-76
2023/04/19 12:30:12;;;;;;;12.90;9.30;;;;;;;;;;5027786;28;20182;-76
2023/04/19 12:32:37;;;;;;;14.27;11.07;;;;;;;;;;5023519;28;20181;-76
2023/04/19 12:35:02;;;;;;;12.73;10.83;;;;;;;;;;5020879;28;20196;-76
2023/04/19 12:37:27;;;;;;;12.37;10.03;;;;;;;;;;5027594;28;20193;-76
2023/04/19 12:39:52;;;;;;;12.50;9.87;;;;;;;;;;5028513;28;20201;-76
2023/04/19 12:42:18;;;;;;;12.83;10.40;;;;;;;;;;5024521;28;20227;-76
2023/04/19 12:44:43;;;;;;;12.23;10.10;;;;;;;;;;5024878;28;20183;-76
2023/04/19 12:47:08;;;;;;;13.00;9.77;;;;;;;;;;5026751;28;20177;-76
2023/04/19 12:49:33;;;;;;;11.27;10.00;;;;;;;;;;5025245;28;20214;-77
2023/04/19 12:51:59;;;;;;;11.80;10.13;;;;;;;;;;5025918;28;20188;-76
2023/04/19 12:54:24;;;;;;;11.67;10.40;;;;;;;;;;5028292;28;20191;-76
2023/04/19 12:56:49;;;;;;;11.07;9.67;;;;;;;;;;5025983;28;20196;-76
2023/04/19 12:59:15;;;;;;;12.47;9.60;;;;;;;;;;5021017;28;20243;-76
2023/04/19 13:01:40;;;;;;;11.80;9.97;;;;;;;;;;5025283;28;20218;-76
2023/04/19 13:04:07;;;;;;;13.37;11.00;;;;;;;;;;5030879;28;20167;-77
2023/04/19 13:06:32;;;;;;;13.60;11.10;;;;;;;;;;5022212;28;20206;-76
2023/04/19 13:08:58;;;;;;;10.97;9.23;;;;;;;;;;5020328;28;20188;-76
2023/04/19 13:11:23;;;;;;;12.00;10.10;;;;;;;;;;5018204;28;20184;-76
2023/04/19 13:13:49;;;;;;;11.40;9.93;;;;;;;;;;5024105;28;20311;-76
2023/04/19 13:16:14;;;;;;;11.17;9.07;;;;;;;;;;5017183;28;20200;-76
2023/04/19 13:18:40;;;;;;;13.50;9.93;;;;;;;;;;5021058;28;20230;-76
2023/04/19 13:21:06;;;;;;;10.87;8.23;;;;;;;;;;5019339;28;20253;-79
2023/04/19 13:23:32;;;;;;;13.30;10.40;;;;;;;;;;5020792;28;20191;-78
2023/04/19 13:25:57;;;;;;;13.80;10.97;;;;;;;;;;5019706;28;20219;-78
2023/04/19 13:28:22;;;;;;;15.67;10.73;;;;;;;;;;5019659;28;20280;-79
2023/04/19 13:30:48;;;;;;;12.50;10.40;;;;;;;;;;5018764;28;20267;-78
2023/04/19 13:33:13;;;;;;;12.30;9.93;;;;;;;;;;5022381;28;20187;-79
2023/04/19 13:35:38;;;;;;;13.70;10.97;;;;;;;;;;5025765;28;20191;-78
2023/04/19 13:38:03;;;;;;;14.13;10.47;;;;;;;;;;5028286;28;20178;-79
2023/04/19 13:40:29;;;;;;;16.37;10.90;;;;;;;;;;5020991;28;20230;-78
2023/04/19 13:42:55;;;;;;;13.50;10.40;;;;;;;;;;5019955;28;20174;-78
2023/04/19 13:45:20;;;;;;;13.43;10.77;;;;;;;;;;5024728;28;20176;-78
2023/04/19 13:47:46;;;;;;;13.17;10.40;;;;;;;;;;5028221;28;20177;-78
2023/04/19 13:50:11;;;;;;;13.00;11.57;;;;;;;;;;5028174;28;20229;-79
2023/04/19 13:52:37;;;;;;;13.80;9.80;;;;;;;;;;5028856;28;20180;-79
2023/04/19 13:55:02;;;;;;;15.37;12.43;;;;;;;;;;5025761;28;20176;-79
2023/04/19 13:57:27;;;;;;;13.17;10.50;;;;;;;;;;5020260;28;20195;-78
2023/04/19 13:59:52;;;;;;;11.33;10.07;;;;;;;;;;5026493;28;20230;-78
2023/04/19 14:02:17;;;;;;;12.27;10.30;;;;;;;;;;5038833;28;20198;-78
2023/04/19 14:04:43;;;;;;;12.13;9.67;;;;;;;;;;5026733;28;20265;-78
2023/04/19 14:07:08;;;;;;;12.80;11.00;;;;;;;;;;5026266;28;20243;-79
2023/04/19 14:09:34;;;;;;;14.70;11.20;;;;;;;;;;5029173;28;20283;-78
2023/04/19 14:11:59;;;;;;;13.63;10.90;;;;;;;;;;5021874;28;20190;-78
2023/04/19 14:14:25;;;;;;;12.03;10.43;;;;;;;;;;5028711;28;20181;-78